createdAt,value
2023-01-02T00:02:27.784Z,16.40
2023-01-02T00:04:56.180Z,15.10
2023-01-02T00:07:24.561Z,16.37
2023-01-02T00:09:52.408Z,17.73
2023-01-02T00:12:20.421Z,15.68
2023-01-02T00:14:48.640Z,15.18
2023-01-02T00:17:19.024Z,16.33
2023-01-02T00:19:47.581Z,14.53
2023-01-02T00:22:16.862Z,13.00
2023-01-02T00:24:44.966Z,14.82
2023-01-02T00:27:13.235Z,13.70
2023-01-02T00:29:41.253Z,16.30
2023-01-02T00:32:10.923Z,13.27
2023-01-02T00:34:40.196Z,14.73
2023-01-02T00:37:08.197Z,13.90
2023-01-02T00:39:37.438Z,12.70
2023-01-02T00:42:05.561Z,14.80
2023-01-02T00:44:33.671Z,13.77
2023-01-02T00:47:02.301Z,14.88
2023-01-02T00:49:30.783Z,13.30
2023-01-02T00:52:01.725Z,13.90
2023-01-02T00:54:29.885Z,14.05
2023-01-02T00:56:57.753Z,12.93
2023-01-02T00:59:25.868Z,13.27
2023-01-02T01:01:54.259Z,12.43
2023-01-02T01:04:22.465Z,12.68
2023-01-02T01:06:50.404Z,16.33
2023-01-02T01:09:20.012Z,11.50
2023-01-02T01:11:49.088Z,13.75
2023-01-02T01:14:17.157Z,13.43
2023-01-02T01:16:45.065Z,16.98
2023-01-02T01:19:15.884Z,18.38
2023-01-02T01:21:45.232Z,18.23
2023-01-02T01:24:13.263Z,19.80
2023-01-02T01:26:42.858Z,16.98
2023-01-02T01:29:11.139Z,19.60
2023-01-02T01:31:39.272Z,15.95
2023-01-02T01:34:07.233Z,16.13
2023-01-02T01:36:37.983Z,18.27
2023-01-02T01:39:07.585Z,16.98
2023-01-02T01:41:35.583Z,15.60
2023-01-02T01:44:33.765Z,16.98
2023-01-02T01:47:03.699Z,15.40
2023-01-02T01:49:31.910Z,14.55
2023-01-02T01:52:05.823Z,18.98
2023-01-02T01:54:37.587Z,13.75
2023-01-02T01:57:11.727Z,16.15
2023-01-02T01:59:40.460Z,17.23
2023-01-02T02:02:09.762Z,15.63
2023-01-02T02:04:38.087Z,21.02
2023-01-02T02:07:05.812Z,20.42
2023-01-02T02:09:41.063Z,18.23
2023-01-02T02:12:10.868Z,21.77
2023-01-02T02:14:38.820Z,15.43
2023-01-02T02:17:16.467Z,17.52
2023-01-02T02:20:15.794Z,13.77
2023-01-02T02:23:08.251Z,16.77
2023-01-02T02:25:59.764Z,12.83
2023-01-02T02:28:46.977Z,16.00
2023-01-02T02:31:21.619Z,14.50
2023-01-02T02:33:57.712Z,13.75
2023-01-02T02:36:36.330Z,13.85
2023-01-02T02:39:12.422Z,13.40
2023-01-02T02:41:46.743Z,15.40
2023-01-02T02:44:25.459Z,13.75
2023-01-02T02:46:59.282Z,11.60
2023-01-02T02:49:39.860Z,13.82
2023-01-02T02:52:17.650Z,12.47
2023-01-02T02:54:50.330Z,17.63
2023-01-02T02:57:21.649Z,15.73
2023-01-02T02:59:49.698Z,13.57
2023-01-02T03:02:20.546Z,12.88
2023-01-02T03:04:52.556Z,16.37
2023-01-02T03:07:28.090Z,18.50
2023-01-02T03:10:11.227Z,13.35
2023-01-02T03:12:49.711Z,13.52
2023-01-02T03:15:24.742Z,12.52
2023-01-02T03:18:05.019Z,13.43
2023-01-02T03:20:38.416Z,15.02
2023-01-02T03:23:12.314Z,14.98
2023-01-02T03:25:41.635Z,14.38
2023-01-02T03:28:11.343Z,13.45
2023-01-02T03:30:42.374Z,11.43
2023-01-02T03:33:25.465Z,12.60
2023-01-02T03:35:56.493Z,14.90
2023-01-02T03:38:27.293Z,13.07
2023-01-02T03:41:03.790Z,12.88
2023-01-02T03:43:35.114Z,12.27
2023-01-02T03:46:08.563Z,13.10
2023-01-02T03:48:42.595Z,13.52
2023-01-02T03:51:13.551Z,12.02
2023-01-02T03:53:41.866Z,12.70
2023-01-02T03:56:18.915Z,14.63
2023-01-02T03:58:54.474Z,11.93
2023-01-02T04:01:34.215Z,13.23
2023-01-02T04:04:10.525Z,12.73
2023-01-02T04:06:43.585Z,12.75
2023-01-02T04:09:16.987Z,11.13
2023-01-02T04:11:50.686Z,13.55
2023-01-02T04:14:21.812Z,15.52
2023-01-02T04:16:54.454Z,13.35
2023-01-02T04:19:27.659Z,16.00
2023-01-02T04:22:00.354Z,13.00
2023-01-02T04:24:32.745Z,13.15
2023-01-02T04:27:05.488Z,13.45
2023-01-02T04:29:33.541Z,12.77
2023-01-02T04:32:06.560Z,11.10
2023-01-02T04:34:40.367Z,12.50
2023-01-02T04:37:08.353Z,12.80
2023-01-02T04:39:39.875Z,12.18
2023-01-02T04:42:07.976Z,11.93
2023-01-02T04:44:36.333Z,17.33
2023-01-02T04:47:04.404Z,13.47
2023-01-02T04:49:32.093Z,12.75
2023-01-02T04:52:01.540Z,13.77
2023-01-02T04:54:29.346Z,12.18
2023-01-02T04:56:56.969Z,13.43
2023-01-02T04:59:25.009Z,12.40
2023-01-02T05:01:53.019Z,13.45
2023-01-02T05:04:22.425Z,13.68
2023-01-02T05:06:52.693Z,14.93
2023-01-02T05:09:22.449Z,13.93
2023-01-02T05:11:50.442Z,11.47
2023-01-02T05:14:18.723Z,12.45
2023-01-02T05:16:46.723Z,14.10
2023-01-02T05:19:15.061Z,12.73
2023-01-02T05:22:00.103Z,12.05
2023-01-02T05:24:29.783Z,11.40
2023-01-02T05:26:57.676Z,13.88
2023-01-02T05:29:25.956Z,13.00
2023-01-02T05:31:53.653Z,13.88
2023-01-02T05:34:21.625Z,13.40
2023-01-02T05:36:49.699Z,15.30
2023-01-02T05:39:17.681Z,14.10
2023-01-02T05:41:47.129Z,14.45
2023-01-02T05:44:15.127Z,13.95
2023-01-02T05:46:43.229Z,13.68
2023-01-02T05:49:12.175Z,13.63
2023-01-02T05:51:40.600Z,11.23
2023-01-02T05:54:09.036Z,13.32
2023-01-02T05:56:36.904Z,14.52
2023-01-02T05:59:08.239Z,12.75
2023-01-02T06:01:36.927Z,15.03
2023-01-02T06:04:05.172Z,14.25
2023-01-02T06:06:35.196Z,14.80
2023-01-02T06:09:04.512Z,15.15
2023-01-02T06:11:33.267Z,15.10
2023-01-02T06:14:01.837Z,16.07
2023-01-02T06:16:31.274Z,16.27
2023-01-02T06:18:59.090Z,15.45
2023-01-02T06:21:27.145Z,14.95
2023-01-02T06:23:56.391Z,13.00
2023-01-02T06:26:28.764Z,11.57
2023-01-02T06:29:01.224Z,13.15
2023-01-02T06:31:30.701Z,15.38
2023-01-02T06:34:00.668Z,14.18
2023-01-02T06:36:32.063Z,13.77
2023-01-02T06:38:59.771Z,13.03
2023-01-02T06:41:27.760Z,12.35
2023-01-02T06:43:55.864Z,15.70
2023-01-02T06:46:25.363Z,16.63
2023-01-02T06:48:54.860Z,16.08
2023-01-02T06:51:24.318Z,14.37
2023-01-02T06:53:52.280Z,14.57
2023-01-02T06:56:21.684Z,13.18
2023-01-02T06:58:49.911Z,16.45
2023-01-02T07:01:21.184Z,16.45
2023-01-02T07:03:49.530Z,19.40
2023-01-02T07:06:21.253Z,18.27
2023-01-02T07:08:49.764Z,19.35
2023-01-02T07:11:20.263Z,15.27
2023-01-02T07:13:49.913Z,13.02
2023-01-02T07:16:22.172Z,15.93
2023-01-02T07:18:50.885Z,13.55
2023-01-02T07:21:20.436Z,13.88
2023-01-02T07:23:50.155Z,15.23
2023-01-02T07:26:18.363Z,15.48
2023-01-02T07:28:47.080Z,15.37
2023-01-02T07:31:16.789Z,13.88
2023-01-02T07:33:44.905Z,14.93
2023-01-02T07:36:14.693Z,14.93
2023-01-02T07:38:44.359Z,13.52
2023-01-02T07:41:15.811Z,14.63
2023-01-02T07:43:44.521Z,14.57
2023-01-02T07:46:13.147Z,15.07
2023-01-02T07:48:41.810Z,17.45
2023-01-02T07:51:11.413Z,14.07
2023-01-02T07:53:41.798Z,16.63
2023-01-02T07:56:11.449Z,15.85
2023-01-02T07:58:39.614Z,15.25
2023-01-02T08:01:08.728Z,14.25
2023-01-02T08:03:36.865Z,13.70
2023-01-02T08:06:07.085Z,16.13
2023-01-02T08:08:35.095Z,17.00
2023-01-02T08:11:06.194Z,15.20
2023-01-02T08:13:35.992Z,13.18
2023-01-02T08:16:08.124Z,14.40
2023-01-02T08:18:36.347Z,13.70
2023-01-02T08:21:04.649Z,14.55
2023-01-02T08:23:33.189Z,16.25
2023-01-02T08:26:03.980Z,13.98
2023-01-02T08:28:32.353Z,17.98
2023-01-02T08:31:01.950Z,13.80
2023-01-02T08:33:30.167Z,15.27
2023-01-02T08:35:58.078Z,15.75
2023-01-02T08:38:26.047Z,13.25
2023-01-02T08:40:53.971Z,14.38
2023-01-02T08:43:21.869Z,12.70
2023-01-02T08:45:49.974Z,14.52
2023-01-02T08:48:20.736Z,13.02
2023-01-02T08:50:49.884Z,16.13
2023-01-02T08:53:18.552Z,15.50
2023-01-02T08:55:46.523Z,14.10
2023-01-02T08:58:14.580Z,14.30
2023-01-02T09:00:42.278Z,15.07
2023-01-02T09:03:10.452Z,15.40
2023-01-02T09:05:39.906Z,12.80
2023-01-02T09:08:07.744Z,11.87
2023-01-02T09:10:35.709Z,13.88
2023-01-02T09:13:03.309Z,12.38
2023-01-02T09:15:32.327Z,14.75
2023-01-02T09:18:00.534Z,15.63
2023-01-02T09:20:28.171Z,14.20
2023-01-02T09:22:57.277Z,14.02
2023-01-02T09:25:25.300Z,13.30
2023-01-02T09:27:53.393Z,13.25
2023-01-02T09:30:21.602Z,13.50
2023-01-02T09:32:50.774Z,12.77
2023-01-02T09:35:18.584Z,14.07
2023-01-02T09:37:46.500Z,13.60
2023-01-02T09:40:15.628Z,12.05
2023-01-02T09:42:45.548Z,11.98
2023-01-02T09:45:15.275Z,12.40
2023-01-02T09:47:46.616Z,12.50
2023-01-02T09:50:17.242Z,11.20
2023-01-02T09:52:51.401Z,12.57
2023-01-02T09:55:36.993Z,10.88
2023-01-02T09:58:16.044Z,12.17
2023-01-02T10:00:48.120Z,11.38
2023-01-02T10:03:25.071Z,10.95
2023-01-02T10:06:07.108Z,11.25
2023-01-02T10:08:43.601Z,12.07
2023-01-02T10:11:25.619Z,12.47
2023-01-02T10:16:48.225Z,14.43
2023-01-02T10:19:21.421Z,12.98
2023-01-02T10:21:52.396Z,11.55
2023-01-02T10:24:26.424Z,12.60
2023-01-02T10:26:55.935Z,11.88
2023-01-02T10:29:30.246Z,10.52
2023-01-02T10:32:01.526Z,10.70
2023-01-02T10:34:38.229Z,10.88
2023-01-02T10:37:13.485Z,11.43
2023-01-02T10:39:43.257Z,11.38
2023-01-02T10:42:14.055Z,10.02
2023-01-02T10:44:44.482Z,10.75
2023-01-02T10:47:19.412Z,11.15
2023-01-02T10:49:48.967Z,10.97
2023-01-02T10:52:23.575Z,12.13
2023-01-02T10:54:59.630Z,12.07
2023-01-02T10:57:40.788Z,9.73
2023-01-02T11:00:28.526Z,10.23
2023-01-02T11:02:58.848Z,11.77
2023-01-02T11:05:29.340Z,9.65
2023-01-02T11:07:57.483Z,9.85
2023-01-02T11:10:28.798Z,10.13
2023-01-02T11:13:02.581Z,10.15
2023-01-02T11:15:34.838Z,12.37
2023-01-02T11:18:05.248Z,12.15
2023-01-02T11:20:36.472Z,12.95
2023-01-02T11:23:05.546Z,9.80
2023-01-02T11:25:38.767Z,11.20
2023-01-02T11:28:15.678Z,11.17
2023-01-02T11:30:46.708Z,10.02
2023-01-02T11:33:28.391Z,11.30
2023-01-02T11:35:58.427Z,10.52
2023-01-02T11:38:30.726Z,13.82
2023-01-02T11:41:01.873Z,11.93
2023-01-02T11:43:50.486Z,10.90
2023-01-02T11:46:30.094Z,7.88
2023-01-02T11:49:04.472Z,8.68
2023-01-02T11:51:35.071Z,9.82
2023-01-02T11:54:06.423Z,10.47
2023-01-02T11:56:37.551Z,9.13
2023-01-02T11:59:13.011Z,8.75
2023-01-02T12:01:51.885Z,10.75
2023-01-02T12:04:19.888Z,8.60
2023-01-02T12:07:05.817Z,7.80
2023-01-02T12:09:43.474Z,8.43
2023-01-02T12:12:25.910Z,9.10
2023-01-02T12:15:27.540Z,7.78
2023-01-02T12:18:05.711Z,8.05
2023-01-02T12:20:41.591Z,10.47
2023-01-02T12:23:33.853Z,9.50
2023-01-02T12:26:09.717Z,8.43
2023-01-02T12:28:59.467Z,8.27
2023-01-02T12:31:43.907Z,9.02
2023-01-02T12:34:27.503Z,9.63
2023-01-02T12:37:07.304Z,7.95
2023-01-02T12:40:00.637Z,7.95
2023-01-02T12:42:44.266Z,8.65
2023-01-02T12:45:18.819Z,10.27
2023-01-02T12:48:14.160Z,9.87
2023-01-02T12:50:55.401Z,7.55
2023-01-02T12:53:39.320Z,10.20
2023-01-02T12:56:14.124Z,9.35
2023-01-02T12:59:01.359Z,8.68
2023-01-02T13:01:34.664Z,10.27
2023-01-02T13:04:12.092Z,10.40
2023-01-02T13:06:49.617Z,8.20
2023-01-02T13:09:26.158Z,9.05
2023-01-02T13:11:59.878Z,6.97
2023-01-02T13:14:38.153Z,8.87
2023-01-02T13:17:18.549Z,8.98
2023-01-02T13:19:54.856Z,8.85
2023-01-02T13:22:34.737Z,9.18
2023-01-02T13:25:03.799Z,8.85
2023-01-02T13:27:32.067Z,9.37
2023-01-02T13:30:03.425Z,10.48
2023-01-02T13:32:32.216Z,8.60
2023-01-02T13:35:04.831Z,8.00
2023-01-02T13:37:32.866Z,8.82
2023-01-02T13:40:03.752Z,7.50
2023-01-02T13:42:52.686Z,11.25
2023-01-02T13:45:24.432Z,9.20
2023-01-02T13:47:55.085Z,9.00
2023-01-02T13:50:29.947Z,8.20
2023-01-02T13:53:38.403Z,8.00
2023-01-02T13:56:14.045Z,8.55
2023-01-02T13:58:46.187Z,10.27
2023-01-02T14:01:41.859Z,9.52
2023-01-02T14:04:39.463Z,9.82
2023-01-02T14:07:49.550Z,8.03
2023-01-02T14:10:35.273Z,8.65
2023-01-02T14:13:08.934Z,8.43
2023-01-02T14:15:57.354Z,10.98
2023-01-02T14:18:31.644Z,10.57
2023-01-02T14:20:59.653Z,10.00
2023-01-02T14:23:31.372Z,10.05
2023-01-02T14:25:59.553Z,23.55
2023-01-02T14:28:30.281Z,64.32
2023-01-02T14:30:59.767Z,84.40
2023-01-02T14:33:33.129Z,65.80
2023-01-02T14:36:09.606Z,48.75
2023-01-02T14:38:43.323Z,38.75
2023-01-02T14:41:39.643Z,41.55
2023-01-02T14:44:11.772Z,36.63
2023-01-02T14:46:40.008Z,31.83
2023-01-02T14:49:26.584Z,21.75
2023-01-02T14:52:00.761Z,18.92
2023-01-02T14:54:34.299Z,16.20
2023-01-02T14:57:08.281Z,16.65
2023-01-02T14:59:40.534Z,14.47
2023-01-02T15:02:15.658Z,13.70
2023-01-02T15:04:47.359Z,14.23
2023-01-02T15:07:26.238Z,11.15
2023-01-02T15:09:58.340Z,12.23
2023-01-02T15:12:45.431Z,14.47
2023-01-02T15:15:14.809Z,14.98
2023-01-02T15:17:43.582Z,15.48
2023-01-02T15:20:19.510Z,16.73
2023-01-02T15:22:47.851Z,15.52
2023-01-02T15:25:35.204Z,14.90
2023-01-02T15:28:03.040Z,14.55
2023-01-02T15:30:34.738Z,13.15
2023-01-02T15:33:02.578Z,15.52
2023-01-02T15:35:34.681Z,14.55
2023-01-02T15:38:02.843Z,18.57
2023-01-02T15:40:34.732Z,16.42
2023-01-02T15:43:23.160Z,17.38
2023-01-02T15:45:53.117Z,19.48
2023-01-02T15:48:23.089Z,19.20
2023-01-02T15:50:53.452Z,19.20
2023-01-02T15:53:25.491Z,17.58
2023-01-02T15:55:55.083Z,17.92
2023-01-02T15:58:26.425Z,19.00
2023-01-02T16:01:18.261Z,19.33
2023-01-02T16:04:00.365Z,18.57
2023-01-02T16:06:34.405Z,17.63
2023-01-02T16:09:04.003Z,15.55
2023-01-02T16:11:35.161Z,18.17
2023-01-02T16:14:20.889Z,22.90
2023-01-02T16:16:52.385Z,20.13
2023-01-02T16:19:25.427Z,20.90
2023-01-02T16:22:03.003Z,20.60
2023-01-02T16:24:31.830Z,27.42
2023-01-02T16:27:01.148Z,27.55
2023-01-02T16:29:29.348Z,22.40
2023-01-02T16:31:59.541Z,21.55
2023-01-02T16:34:31.268Z,17.00
2023-01-02T16:37:27.014Z,15.60
2023-01-02T16:39:55.802Z,20.80
2023-01-02T16:42:39.712Z,20.10
2023-01-02T16:45:08.993Z,22.48
2023-01-02T16:47:39.767Z,23.63
2023-01-02T16:50:13.070Z,30.05
2023-01-02T16:52:40.685Z,30.17
2023-01-02T16:55:16.355Z,36.23
2023-01-02T16:57:46.008Z,35.15
2023-01-02T17:00:15.972Z,32.28
2023-01-02T17:02:44.041Z,30.35
2023-01-02T17:05:18.935Z,27.85
2023-01-02T17:07:46.935Z,26.10
2023-01-02T17:10:14.953Z,25.77
2023-01-02T17:12:43.565Z,32.92
2023-01-02T17:15:16.332Z,40.20
2023-01-02T17:17:44.533Z,36.72
2023-01-02T17:20:13.411Z,34.30
2023-01-02T17:22:42.301Z,32.67
2023-01-02T17:25:13.968Z,32.55
2023-01-02T17:27:42.992Z,26.15
2023-01-02T17:30:12.883Z,26.60
2023-01-02T17:32:42.977Z,21.63
2023-01-02T17:35:12.984Z,22.08
2023-01-02T17:37:41.529Z,20.67
2023-01-02T17:40:12.399Z,18.33
2023-01-02T17:42:41.163Z,21.15
2023-01-02T17:45:11.496Z,26.33
2023-01-02T17:47:59.876Z,24.45
2023-01-02T17:50:29.312Z,24.35
2023-01-02T17:52:57.257Z,21.92
2023-01-02T17:55:25.014Z,21.40
2023-01-02T17:57:53.042Z,18.07
2023-01-02T18:00:23.354Z,19.90
2023-01-02T18:02:53.448Z,23.55
2023-01-02T18:05:22.476Z,27.42
2023-01-02T18:07:52.084Z,27.08
2023-01-02T18:10:21.050Z,31.33
2023-01-02T18:12:50.423Z,29.65
2023-01-02T18:15:21.133Z,29.23
2023-01-02T18:17:49.703Z,28.85
2023-01-02T18:20:19.998Z,31.38
2023-01-02T18:22:50.511Z,30.07
2023-01-02T18:25:24.614Z,32.83
2023-01-02T18:27:54.596Z,36.70
2023-01-02T18:30:24.673Z,36.35
2023-01-02T18:32:58.661Z,36.50
2023-01-02T18:35:56.687Z,38.47
2023-01-02T18:38:29.220Z,44.88
2023-01-02T18:40:59.343Z,44.78
2023-01-02T18:43:29.845Z,43.45
2023-01-02T18:46:00.038Z,32.75
2023-01-02T18:48:28.216Z,30.77
2023-01-02T18:51:01.127Z,27.05
2023-01-02T18:53:32.789Z,31.55
2023-01-02T18:56:04.546Z,30.83
2023-01-02T18:58:43.268Z,26.90
2023-01-02T19:01:26.138Z,31.10
2023-01-02T19:03:58.280Z,27.17
2023-01-02T19:06:28.513Z,27.17
2023-01-02T19:09:08.342Z,26.92
2023-01-02T19:11:56.328Z,27.40
2023-01-02T19:14:26.988Z,28.20
2023-01-02T19:17:02.826Z,28.02
2023-01-02T19:19:34.381Z,24.27
2023-01-02T19:22:12.333Z,27.55
2023-01-02T19:24:40.427Z,29.73
2023-01-02T19:27:23.319Z,20.27
2023-01-02T19:29:52.291Z,17.88
2023-01-02T19:32:28.448Z,19.98
2023-01-02T19:34:58.069Z,20.48
2023-01-02T19:37:39.215Z,13.65
2023-01-02T19:40:18.660Z,15.23
2023-01-02T19:42:49.738Z,14.38
2023-01-02T19:45:19.970Z,13.48
2023-01-02T19:47:49.522Z,10.43
2023-01-02T19:50:19.459Z,13.27
2023-01-02T19:52:47.660Z,14.40
2023-01-02T19:55:18.614Z,9.77
2023-01-02T19:57:48.669Z,12.15
2023-01-02T20:00:19.590Z,10.02
2023-01-02T20:02:49.947Z,5.78
2023-01-02T20:05:22.802Z,5.53
2023-01-02T20:07:51.953Z,6.95
2023-01-02T20:10:20.699Z,8.23
2023-01-02T20:12:49.820Z,7.13
2023-01-02T20:15:19.766Z,5.65
2023-01-02T20:17:48.717Z,6.13
2023-01-02T20:20:18.869Z,6.32
2023-01-02T20:22:49.622Z,8.35
2023-01-02T20:25:19.043Z,4.53
2023-01-02T20:27:46.915Z,7.85
2023-01-02T20:30:23.726Z,4.03
2023-01-02T20:32:52.487Z,4.95
2023-01-02T20:35:20.984Z,6.80
2023-01-02T20:37:49.548Z,5.30
2023-01-02T20:40:17.856Z,5.20
2023-01-02T20:42:45.618Z,4.60
2023-01-02T20:45:13.330Z,6.93
2023-01-02T20:47:42.938Z,6.57
2023-01-02T20:50:10.829Z,4.88
2023-01-02T20:52:38.450Z,5.47
2023-01-02T20:55:07.467Z,3.17
2023-01-02T20:57:35.386Z,8.40
2023-01-02T21:00:03.388Z,3.95
2023-01-02T21:02:31.713Z,5.68
2023-01-02T21:05:01.349Z,5.28
2023-01-02T21:07:29.613Z,4.90
2023-01-02T21:09:59.512Z,5.05
2023-01-02T21:12:44.649Z,4.40
2023-01-02T21:15:33.326Z,4.47
2023-01-02T21:18:04.197Z,3.78
2023-01-02T21:20:37.849Z,3.40
2023-01-02T21:23:09.894Z,2.55
2023-01-02T21:25:38.589Z,3.17
2023-01-02T21:28:07.946Z,4.22
2023-01-02T21:30:36.344Z,3.95
2023-01-02T21:33:04.564Z,2.67
2023-01-02T21:35:37.345Z,1.33
2023-01-02T21:38:06.048Z,3.45
2023-01-02T21:40:34.028Z,2.03
2023-01-02T21:43:02.191Z,1.02
2023-01-02T21:45:31.428Z,2.63
2023-01-02T21:47:59.340Z,1.45
2023-01-02T21:50:28.681Z,2.58
2023-01-02T21:52:58.565Z,0.60
2023-01-02T21:55:29.823Z,1.67
2023-01-02T21:58:14.861Z,1.83
2023-01-02T22:00:43.712Z,2.13
2023-01-02T22:03:12.241Z,0.73
2023-01-02T22:05:40.285Z,0.90
2023-01-02T22:08:09.964Z,1.55
2023-01-02T22:10:40.022Z,1.47
2023-01-02T22:13:09.043Z,0.98
2023-01-02T22:15:37.216Z,1.40
2023-01-02T22:18:06.033Z,0.55
2023-01-02T22:20:34.016Z,0.40
2023-01-02T22:23:02.079Z,0.33
2023-01-02T22:25:32.558Z,0.95
2023-01-02T22:28:02.460Z,0.50
2023-01-02T22:30:34.491Z,1.30
2023-01-02T22:33:03.318Z,0.68
2023-01-02T22:35:31.819Z,0.63
2023-01-02T22:37:59.849Z,1.25
2023-01-02T22:40:29.775Z,0.38
2023-01-02T22:43:02.879Z,0.70
2023-01-02T22:45:34.423Z,0.80
2023-01-02T22:48:06.729Z,1.13
2023-01-02T22:50:42.385Z,1.05
2023-01-02T22:53:21.778Z,0.50
2023-01-02T22:55:50.653Z,0.73
2023-01-02T22:58:21.417Z,0.95
2023-01-02T23:00:56.638Z,2.23
2023-01-02T23:03:25.834Z,0.90
2023-01-02T23:05:54.039Z,0.50
2023-01-02T23:08:22.016Z,0.57
2023-01-02T23:10:50.089Z,0.65
2023-01-02T23:13:19.821Z,0.40
2023-01-02T23:16:07.317Z,0.63
2023-01-02T23:18:56.553Z,1.08
2023-01-02T23:21:25.398Z,0.50
2023-01-02T23:23:53.642Z,2.08
2023-01-02T23:26:22.298Z,0.77
2023-01-02T23:29:08.696Z,1.00
2023-01-02T23:31:39.162Z,0.50
2023-01-02T23:34:07.973Z,1.65
2023-01-02T23:36:36.049Z,1.30
2023-01-02T23:39:05.848Z,0.97
2023-01-02T23:41:34.671Z,1.02
2023-01-02T23:44:05.468Z,0.95
2023-01-02T23:46:34.075Z,1.05
2023-01-02T23:49:02.618Z,0.30
2023-01-02T23:51:31.425Z,0.77
2023-01-02T23:53:59.936Z,0.30
2023-01-02T23:56:31.005Z,1.30
2023-01-02T23:59:02.086Z,0.47
